createdAt,value
2022-11-29T00:00:32.331Z,100064.47
2022-11-29T00:03:34.641Z,100065.47
2022-11-29T00:06:36.801Z,100061.25
2022-11-29T00:09:38.711Z,100052.13
2022-11-29T00:12:40.642Z,100055.75
2022-11-29T00:15:55.449Z,100051.69
2022-11-29T00:18:57.351Z,100056.84
2022-11-29T00:22:00.095Z,100052.91
2022-11-29T00:25:01.993Z,100060.25
2022-11-29T00:28:04.075Z,100055.34
2022-11-29T00:31:19.215Z,100062.94
2022-11-29T00:34:21.292Z,100054.72
2022-11-29T00:37:23.170Z,100053.84
2022-11-29T00:40:25.072Z,100052.28
2022-11-29T00:43:27.199Z,100044.63
2022-11-29T00:46:29.076Z,100043.94
2022-11-29T00:49:31.111Z,100041.41
2022-11-29T00:52:32.978Z,100043.00
2022-11-29T00:55:34.827Z,100040.59
2022-11-29T00:58:37.434Z,100036.28
2022-11-29T01:01:39.369Z,100040.53
2022-11-29T01:04:41.431Z,100038.91
2022-11-29T01:07:43.520Z,100032.16
2022-11-29T01:10:45.813Z,100035.59
2022-11-29T01:13:49.101Z,100033.13
2022-11-29T01:31:38.362Z,100012.47
2022-11-29T01:34:40.437Z,100026.00
2022-11-29T01:37:42.406Z,100017.50
2022-11-29T01:40:45.165Z,100029.31
2022-11-29T01:44:26.798Z,100029.31
2022-11-29T01:47:29.432Z,100015.94
2022-11-29T01:50:31.394Z,100021.78
2022-11-29T01:53:33.447Z,100016.72
2022-11-29T01:56:35.991Z,100014.13
2022-11-29T01:59:44.296Z,100023.41
2022-11-29T02:02:54.368Z,100026.75
2022-11-29T02:05:56.299Z,100024.13
2022-11-29T02:08:58.295Z,100023.22
2022-11-29T02:12:25.626Z,100021.47
2022-11-29T02:15:47.369Z,100023.09
2022-11-29T02:19:16.807Z,100018.88
2022-11-29T02:22:32.990Z,100015.53
2022-11-29T02:25:53.128Z,100017.22
2022-11-29T02:29:03.887Z,100017.19
2022-11-29T02:32:43.248Z,100016.50
2022-11-29T02:36:03.214Z,100019.81
2022-11-29T02:39:44.227Z,100021.47
2022-11-29T02:43:36.125Z,100013.81
2022-11-29T02:46:57.476Z,100012.22
2022-11-29T02:50:30.094Z,100012.28
2022-11-29T02:53:57.943Z,100025.78
2022-11-29T02:57:41.359Z,100026.63
2022-11-29T03:00:57.131Z,100030.88
2022-11-29T03:04:37.441Z,100026.66
2022-11-29T03:07:52.967Z,100035.19
2022-11-29T03:11:34.559Z,100031.00
2022-11-29T03:14:46.194Z,100040.22
2022-11-29T03:17:56.819Z,100035.16
2022-11-29T03:37:14.132Z,100032.78
2022-11-29T03:40:38.896Z,100028.44
2022-11-29T03:43:50.569Z,100036.09
2022-11-29T03:47:01.664Z,100038.59
2022-11-29T03:50:19.123Z,100034.47
2022-11-29T03:53:36.867Z,100043.59
2022-11-29T03:56:41.157Z,100036.78
2022-11-29T04:00:10.008Z,100044.28
2022-11-29T04:03:32.934Z,100045.06
2022-11-29T04:06:34.787Z,100040.91
2022-11-29T04:09:48.091Z,100034.22
2022-11-29T04:13:08.514Z,100042.78
2022-11-29T04:16:32.294Z,100044.44
2022-11-29T04:19:46.359Z,100045.28
2022-11-29T04:23:13.347Z,100042.00
2022-11-29T04:26:42.803Z,100038.56
2022-11-29T04:29:50.623Z,100039.53
2022-11-29T04:33:04.375Z,100043.78
2022-11-29T04:36:12.399Z,100040.34
2022-11-29T04:39:37.681Z,100036.94
2022-11-29T04:42:52.808Z,100038.63
2022-11-29T04:46:12.876Z,100046.25
2022-11-29T04:49:36.844Z,100049.50
2022-11-29T04:53:04.312Z,100049.34
2022-11-29T04:56:38.475Z,100044.22
2022-11-29T04:59:51.836Z,100025.84
2022-11-29T05:03:02.098Z,100051.84
2022-11-29T05:06:19.718Z,100057.75
2022-11-29T05:09:55.408Z,100050.09
2022-11-29T05:13:00.290Z,100055.16
2022-11-29T05:16:31.596Z,100052.69
2022-11-29T05:19:47.317Z,100051.84
2022-11-29T05:22:53.170Z,100058.59
2022-11-29T05:26:02.398Z,100050.19
2022-11-29T05:29:10.835Z,100050.16
2022-11-29T05:32:32.608Z,100054.44
2022-11-29T05:35:45.365Z,100051.06
2022-11-29T05:39:19.112Z,100057.00
2022-11-29T05:42:38.636Z,100059.50
2022-11-29T05:45:46.856Z,100063.78
2022-11-29T05:48:53.592Z,100055.34
2022-11-29T06:04:48.296Z,100071.59
2022-11-29T06:08:04.259Z,100085.09
2022-11-29T06:11:24.183Z,100082.47
2022-11-29T06:15:16.443Z,100085.88
2022-11-29T06:18:36.918Z,100094.34
2022-11-29T06:22:00.271Z,100075.84
2022-11-29T06:25:23.999Z,100089.31
2022-11-29T06:29:01.871Z,100093.53
2022-11-29T06:32:25.282Z,100090.03
2022-11-29T06:35:45.899Z,100096.81
2022-11-29T06:39:05.738Z,100093.38
2022-11-29T06:42:27.545Z,100101.81
2022-11-29T06:45:52.692Z,100107.06
2022-11-29T06:49:26.827Z,100106.19
2022-11-29T06:52:54.809Z,100109.53
2022-11-29T06:56:04.236Z,100102.72
2022-11-29T06:59:44.654Z,100112.09
2022-11-29T07:03:20.862Z,100113.81
2022-11-29T07:06:25.982Z,100116.31
2022-11-29T07:09:34.596Z,100103.72
2022-11-29T07:12:36.868Z,100094.53
2022-11-29T07:15:40.849Z,100091.81
2022-11-29T07:19:07.228Z,100094.41
2022-11-29T07:22:36.392Z,100091.91
2022-11-29T07:26:15.354Z,100109.63
2022-11-29T07:29:29.427Z,100105.38
2022-11-29T07:32:58.737Z,100108.50
2022-11-29T07:36:37.528Z,100102.47
2022-11-29T07:39:51.203Z,100113.38
2022-11-29T07:43:28.636Z,100114.50
2022-11-29T07:46:30.514Z,100115.28
2022-11-29T07:49:32.368Z,100116.19
2022-11-29T07:52:34.533Z,100108.38
2022-11-29T07:55:37.471Z,100107.59
2022-11-29T07:58:39.609Z,100109.25
2022-11-29T08:01:42.016Z,100098.19
2022-11-29T08:04:47.285Z,100117.63
2022-11-29T08:07:49.714Z,100110.91
2022-11-29T08:10:51.734Z,100108.25
2022-11-29T08:14:01.985Z,100110.16
2022-11-29T08:17:04.083Z,100101.53
2022-11-29T08:20:07.440Z,100103.09
2022-11-29T08:23:12.600Z,100099.78
2022-11-29T08:26:16.222Z,100107.19
2022-11-29T08:29:19.177Z,100097.16
2022-11-29T08:32:21.036Z,100112.16
2022-11-29T08:35:24.168Z,100113.09
2022-11-29T08:38:26.048Z,100106.94
2022-11-29T08:41:28.120Z,100111.25
2022-11-29T08:44:29.956Z,100109.25
2022-11-29T08:47:37.944Z,100108.53
2022-11-29T08:50:39.751Z,100114.31
2022-11-29T08:53:41.777Z,100112.56
2022-11-29T09:00:07.068Z,100104.88
2022-11-29T09:03:29.342Z,100102.09
2022-11-29T09:06:39.899Z,100111.41
2022-11-29T09:09:41.948Z,100113.19
2022-11-29T09:12:44.954Z,100118.25
2022-11-29T09:15:46.928Z,100108.13
2022-11-29T09:18:52.082Z,100111.25
2022-11-29T09:21:54.442Z,100107.69
2022-11-29T09:24:56.394Z,100105.34
2022-11-29T09:28:01.906Z,100111.22
2022-11-29T09:31:08.954Z,100116.84
2022-11-29T09:34:15.250Z,100109.78
2022-11-29T09:37:17.087Z,100121.66
2022-11-29T09:40:27.440Z,100107.97
2022-11-29T09:44:03.167Z,100107.28
2022-11-29T09:47:26.450Z,100112.97
2022-11-29T09:50:35.418Z,100103.00
2022-11-29T09:54:04.662Z,100110.09
2022-11-29T09:57:10.514Z,100111.44
2022-11-29T10:00:20.048Z,100111.31
2022-11-29T10:03:44.610Z,100100.56
2022-11-29T10:06:54.598Z,100101.28
2022-11-29T10:10:02.376Z,100093.19
2022-11-29T10:13:13.828Z,100094.91
2022-11-29T10:16:34.449Z,100094.09
2022-11-29T10:19:42.646Z,100084.06
2022-11-29T10:23:05.962Z,100078.94
2022-11-29T10:26:08.343Z,100079.78
2022-11-29T10:29:14.810Z,100079.59
2022-11-29T10:32:19.744Z,100076.31
2022-11-29T10:35:22.771Z,100068.31
2022-11-29T10:38:32.497Z,100068.03
2022-11-29T10:41:35.738Z,100060.00
2022-11-29T10:44:37.565Z,100058.97
2022-11-29T10:47:39.594Z,100056.63
2022-11-29T10:50:46.728Z,100059.94
2022-11-29T10:53:52.400Z,100059.19
2022-11-29T10:57:36.804Z,100058.16
2022-11-29T11:01:02.462Z,100050.19
2022-11-29T11:04:07.521Z,100050.66
2022-11-29T11:07:23.041Z,100052.19
2022-11-29T11:10:30.877Z,100042.72
2022-11-29T11:13:33.617Z,100045.63
2022-11-29T11:16:37.652Z,100049.38
2022-11-29T11:19:39.717Z,100043.00
2022-11-29T11:22:41.612Z,100031.22
2022-11-29T11:25:43.497Z,100033.75
2022-11-29T11:28:50.207Z,100039.28
2022-11-29T11:31:58.089Z,100033.91
2022-11-29T11:35:02.132Z,100043.47
2022-11-29T11:38:04.015Z,100046.91
2022-11-29T11:41:11.880Z,100037.25
2022-11-29T11:44:47.021Z,100038.84
2022-11-29T11:47:53.613Z,100041.22
2022-11-29T11:50:59.357Z,100043.69
2022-11-29T11:54:01.296Z,100046.22
2022-11-29T11:57:03.478Z,100037.63
2022-11-29T12:00:07.329Z,100042.66
2022-11-29T12:03:38.250Z,100045.03
2022-11-29T12:06:46.239Z,100046.84
2022-11-29T12:09:52.935Z,100045.09
2022-11-29T12:12:57.481Z,100050.97
2022-11-29T12:16:07.342Z,100049.00
2022-11-29T12:19:23.840Z,100051.38
2022-11-29T12:22:32.833Z,100048.66
2022-11-29T12:25:42.703Z,100043.56
2022-11-29T12:28:46.272Z,100042.59
2022-11-29T12:32:10.168Z,100049.03
2022-11-29T12:35:20.850Z,100043.06
2022-11-29T12:38:41.639Z,100026.75
2022-11-29T12:42:24.801Z,100033.41
2022-11-29T12:45:32.381Z,100027.97
2022-11-29T12:48:52.514Z,100026.28
2022-11-29T12:51:57.131Z,100020.06
2022-11-29T12:55:24.855Z,100015.63
2022-11-29T12:58:46.433Z,100013.91
2022-11-29T13:02:00.353Z,100015.34
2022-11-29T13:05:20.100Z,100009.78
2022-11-29T13:08:21.882Z,100015.72
2022-11-29T13:11:37.498Z,100014.16
2022-11-29T13:14:49.809Z,100030.09
2022-11-29T13:18:00.946Z,100024.41
2022-11-29T13:21:16.843Z,100028.53
2022-11-29T13:24:28.629Z,100028.69
2022-11-29T13:27:34.880Z,100039.06
2022-11-29T13:30:39.277Z,100041.91
2022-11-29T13:34:13.157Z,100046.88
2022-11-29T13:37:26.774Z,100039.97
2022-11-29T13:40:37.192Z,100037.59
2022-11-29T13:43:50.182Z,100034.31
2022-11-29T13:47:03.404Z,100035.41
2022-11-29T13:50:26.482Z,100032.00
2022-11-29T13:53:48.295Z,100029.50
2022-11-29T13:57:02.071Z,100031.25
2022-11-29T14:00:04.868Z,100024.59
2022-11-29T14:03:22.006Z,100028.00
2022-11-29T14:07:25.060Z,100031.81
2022-11-29T14:11:27.306Z,100042.25
2022-11-29T14:15:11.902Z,100039.31
2022-11-29T14:18:36.556Z,100054.16
2022-11-29T14:22:06.757Z,100054.38
2022-11-29T14:25:50.652Z,100058.78
2022-11-29T14:28:56.563Z,100059.06
2022-11-29T14:31:59.769Z,100061.72
2022-11-29T14:35:10.714Z,100057.81
2022-11-29T14:38:29.225Z,100062.41
2022-11-29T14:41:50.897Z,100061.75
2022-11-29T14:45:04.733Z,100064.50
2022-11-29T14:48:25.914Z,100067.97
2022-11-29T14:51:30.729Z,100063.75
2022-11-29T14:54:33.887Z,100069.78
2022-11-29T14:57:48.145Z,100059.72
2022-11-29T15:00:50.074Z,100062.63
2022-11-29T15:03:52.768Z,100060.38
2022-11-29T15:06:56.928Z,100064.94
2022-11-29T15:10:03.483Z,100068.72
2022-11-29T15:13:09.003Z,100066.34
2022-11-29T16:21:30.836Z,100071.47
2022-11-29T16:24:34.527Z,100071.75
2022-11-29T16:27:36.797Z,100065.84
2022-11-29T16:31:18.920Z,100067.53
2022-11-29T16:35:12.272Z,100070.97
2022-11-29T16:39:13.881Z,100068.50
2022-11-29T16:43:01.662Z,100081.97
2022-11-29T16:46:25.636Z,100081.97
2022-11-29T16:50:27.908Z,100088.56
2022-11-29T16:54:38.394Z,100082.56
2022-11-29T16:59:17.314Z,100090.19
2022-11-29T17:03:01.660Z,100086.94
2022-11-29T17:07:03.251Z,100087.78
2022-11-29T17:11:04.941Z,100090.06
2022-11-29T17:14:27.779Z,100098.31
2022-11-29T17:17:29.947Z,100098.03
2022-11-29T17:20:32.447Z,100103.03
2022-11-29T17:23:34.775Z,100102.00
2022-11-29T17:26:36.727Z,100102.38
2022-11-29T17:29:39.148Z,100103.34
2022-11-29T17:32:41.386Z,100105.22
2022-11-29T17:35:43.219Z,100106.16
2022-11-29T17:38:46.016Z,100109.44
2022-11-29T17:41:47.839Z,100111.03
2022-11-29T17:44:49.732Z,100108.31
2022-11-29T17:47:52.865Z,100115.72
2022-11-29T17:50:59.512Z,100115.63
2022-11-29T17:54:02.951Z,100123.06
2022-11-29T17:57:05.031Z,100119.28
2022-11-29T18:00:08.852Z,100121.81
2022-11-29T18:03:10.977Z,100116.72
2022-11-29T18:06:18.183Z,100121.09
2022-11-29T18:09:20.437Z,100121.81
2022-11-29T18:12:22.631Z,100121.06
2022-11-29T18:15:24.678Z,100123.56
2022-11-29T18:18:26.810Z,100122.88
